createdAt,value
2022-08-12T00:00:49.776Z,42.02
2022-08-12T00:04:31.805Z,41.36
2022-08-12T00:08:14.797Z,42.37
2022-08-12T00:11:59.796Z,43.29
2022-08-12T00:15:42.887Z,43.96
2022-08-12T00:19:25.789Z,44.05
2022-08-12T00:23:06.793Z,44.33
2022-08-12T00:26:50.789Z,44.66
2022-08-12T00:30:32.834Z,43.59
2022-08-12T00:34:14.805Z,44.24
2022-08-12T00:38:00.841Z,41.99
2022-08-12T00:41:45.792Z,42.67
2022-08-12T00:45:09.820Z,43.56
2022-08-12T00:48:33.784Z,43.35
2022-08-12T00:52:19.828Z,42.98
2022-08-12T00:55:43.776Z,43.81
2022-08-12T00:59:08.840Z,42.89
2022-08-12T01:02:41.973Z,43.84
2022-08-12T01:06:26.833Z,42.68
2022-08-12T01:10:08.813Z,43.19
2022-08-12T01:13:33.814Z,42.83
2022-08-12T01:16:58.851Z,40.17
2022-08-12T01:20:23.827Z,41.59
2022-08-12T01:24:22.988Z,41.69
2022-08-12T01:27:57.822Z,42.21
2022-08-12T01:31:22.813Z,41.25
2022-08-12T01:34:48.838Z,41.38
2022-08-12T01:38:21.807Z,40.96
2022-08-12T01:41:58.845Z,39.38
2022-08-12T01:45:25.801Z,41.96
2022-08-12T01:49:14.867Z,39.66
2022-08-12T01:53:08.804Z,40.81
2022-08-12T01:56:32.849Z,40.83
2022-08-12T02:00:14.801Z,40.16
2022-08-12T02:04:08.865Z,39.43
2022-08-12T02:08:07.986Z,40.22
2022-08-12T02:11:48.831Z,39.44
2022-08-12T02:15:33.869Z,40.00
2022-08-12T02:19:03.835Z,39.45
2022-08-12T02:22:51.855Z,40.63
2022-08-12T02:26:20.802Z,37.50
2022-08-12T02:29:44.877Z,38.60
2022-08-12T02:33:09.822Z,38.00
2022-08-12T02:36:32.860Z,38.88
2022-08-12T02:40:04.827Z,39.12
2022-08-12T02:43:52.859Z,39.50
2022-08-12T02:48:00.148Z,39.40
2022-08-12T02:51:09.871Z,38.00
2022-08-12T02:54:33.852Z,39.42
2022-08-12T02:57:57.870Z,39.41
2022-08-12T03:01:25.075Z,39.14
2022-08-12T03:04:53.975Z,39.75
2022-08-12T03:08:31.608Z,40.38
2022-08-12T03:12:20.169Z,41.53
2022-08-12T03:15:44.848Z,41.23
2022-08-12T03:19:10.868Z,41.10
2022-08-12T03:22:35.845Z,42.17
2022-08-12T03:25:59.915Z,42.51
2022-08-12T03:29:24.876Z,40.78
2022-08-12T03:32:50.263Z,42.11
2022-08-12T03:36:16.867Z,38.85
2022-08-12T03:39:47.963Z,39.68
2022-08-12T03:43:32.858Z,38.62
2022-08-12T03:47:20.905Z,40.05
2022-08-12T03:51:03.865Z,36.99
2022-08-12T03:54:46.892Z,36.27
2022-08-12T03:58:31.871Z,38.33
2022-08-12T04:02:00.886Z,39.93
2022-08-12T04:05:50.781Z,39.06
2022-08-12T04:09:14.763Z,39.47
2022-08-12T04:13:01.004Z,40.39
2022-08-12T04:16:25.865Z,42.11
2022-08-12T04:19:56.019Z,40.17
2022-08-12T04:23:20.871Z,41.67
2022-08-12T04:26:44.929Z,41.95
2022-08-12T04:30:31.656Z,42.45
2022-08-12T04:33:52.895Z,43.56
2022-08-12T04:37:16.867Z,43.45
2022-08-12T04:40:46.898Z,43.16
2022-08-12T04:44:10.907Z,42.55
2022-08-12T04:47:34.902Z,41.29
2022-08-12T04:51:00.908Z,42.53
2022-08-12T04:54:24.917Z,43.49
2022-08-12T04:57:49.923Z,43.22
2022-08-12T05:01:15.035Z,44.42
2022-08-12T05:04:38.903Z,44.12
2022-08-12T05:08:02.921Z,45.04
2022-08-12T05:11:26.923Z,46.13
2022-08-12T05:14:50.936Z,45.77
2022-08-12T05:18:19.691Z,45.35
2022-08-12T05:21:44.931Z,45.90
2022-08-12T05:25:09.906Z,46.52
2022-08-12T05:28:35.016Z,45.95
2022-08-12T05:32:03.898Z,47.54
2022-08-12T05:35:27.976Z,47.61
2022-08-12T05:39:04.922Z,47.83
2022-08-12T05:42:34.508Z,49.40
2022-08-12T05:45:58.905Z,50.12
2022-08-12T05:49:23.944Z,54.27
2022-08-12T05:52:48.303Z,58.78
2022-08-12T05:56:12.999Z,61.88
2022-08-12T05:59:37.899Z,64.53
2022-08-12T06:03:05.032Z,65.04
2022-08-12T06:06:31.692Z,66.14
2022-08-12T06:09:55.958Z,66.60
2022-08-12T06:13:28.260Z,67.04
2022-08-12T06:17:01.361Z,67.04
2022-08-12T06:20:29.378Z,67.40
2022-08-12T06:23:52.950Z,67.45
2022-08-12T06:27:17.924Z,67.93
2022-08-12T06:30:42.927Z,67.49
2022-08-12T06:35:26.142Z,67.84
2022-08-12T06:37:57.936Z,68.02
2022-08-12T06:41:40.947Z,69.01
2022-08-12T06:45:25.959Z,68.99
2022-08-12T06:49:10.948Z,69.36
2022-08-12T06:52:36.031Z,69.22
2022-08-12T06:56:02.931Z,69.63
2022-08-12T06:59:28.954Z,69.79
2022-08-12T07:02:51.946Z,69.45
2022-08-12T07:06:21.944Z,69.85
2022-08-12T07:10:01.227Z,69.50
2022-08-12T07:13:27.965Z,69.32
2022-08-12T07:17:01.939Z,69.77
2022-08-12T07:20:51.264Z,69.77
2022-08-12T07:24:09.932Z,70.08
2022-08-12T07:27:33.992Z,70.47
2022-08-12T07:30:57.939Z,69.19
2022-08-12T07:34:22.984Z,68.95
2022-08-12T07:37:45.941Z,69.74
2022-08-12T07:41:20.978Z,69.75
2022-08-12T07:44:43.984Z,70.02
2022-08-12T07:48:07.986Z,69.77
2022-08-12T07:51:31.957Z,69.89
2022-08-12T07:54:55.987Z,70.33
2022-08-12T07:58:18.987Z,71.04
2022-08-12T08:01:42.023Z,70.32
2022-08-12T08:05:04.939Z,70.62
2022-08-12T08:08:29.977Z,70.53
2022-08-12T08:12:19.159Z,70.62
2022-08-12T08:16:02.366Z,70.64
2022-08-12T08:19:26.979Z,71.02
2022-08-12T08:22:47.064Z,71.31
2022-08-12T08:26:09.987Z,70.61
2022-08-12T08:29:34.943Z,71.54
2022-08-12T08:32:59.010Z,71.70
2022-08-12T08:36:25.967Z,71.32
2022-08-12T08:39:51.071Z,71.25
2022-08-12T08:43:14.983Z,71.02
2022-08-12T08:46:38.313Z,71.63
2022-08-12T08:49:55.978Z,70.68
2022-08-12T08:53:19.971Z,70.71
2022-08-12T08:56:54.033Z,70.25
2022-08-12T09:00:15.418Z,70.69
2022-08-12T09:05:09.841Z,71.54
2022-08-12T09:07:51.287Z,71.36
2022-08-12T09:11:05.982Z,71.19
2022-08-12T09:14:33.088Z,71.65
2022-08-12T09:18:14.992Z,72.30
2022-08-12T09:21:55.023Z,72.67
2022-08-12T09:25:25.735Z,73.23
2022-08-12T09:28:50.160Z,72.59
2022-08-12T09:32:55.681Z,73.60
2022-08-12T09:36:04.984Z,73.99
2022-08-12T09:40:05.757Z,74.13
2022-08-12T09:43:30.998Z,74.35
2022-08-12T09:46:55.042Z,72.87
2022-08-12T09:50:20.308Z,73.29
2022-08-12T09:53:45.751Z,73.12
2022-08-12T09:58:07.541Z,74.46
2022-08-12T10:01:23.286Z,75.36
2022-08-12T10:04:57.031Z,76.05
2022-08-12T10:08:20.977Z,75.74
2022-08-12T10:12:10.326Z,76.01
2022-08-12T10:16:01.481Z,77.30
2022-08-12T10:19:23.115Z,75.77
2022-08-12T10:23:07.127Z,76.22
2022-08-12T10:26:49.015Z,75.69
2022-08-12T10:30:42.182Z,76.94
2022-08-12T10:34:05.232Z,76.51
2022-08-12T10:38:32.360Z,77.61
2022-08-12T10:41:58.377Z,77.22
2022-08-12T10:45:20.990Z,76.10
2022-08-12T10:48:58.001Z,73.19
2022-08-12T10:52:34.239Z,72.88
2022-08-12T10:56:03.043Z,72.29
2022-08-12T11:00:31.019Z,71.47
2022-08-12T11:04:28.012Z,71.17
2022-08-12T11:08:33.668Z,71.30
2022-08-12T11:10:45.668Z,71.43
2022-08-12T11:14:48.484Z,71.27
2022-08-12T11:17:54.969Z,71.51
2022-08-12T11:21:20.016Z,72.63
2022-08-12T11:24:51.179Z,72.87
2022-08-12T11:28:16.194Z,73.35
2022-08-12T11:31:41.044Z,73.72
2022-08-12T11:35:21.036Z,72.81
2022-08-12T11:38:50.806Z,72.00
2022-08-12T11:42:14.989Z,72.22
2022-08-12T11:45:38.905Z,72.72
2022-08-12T11:49:03.018Z,74.34
2022-08-12T11:52:51.375Z,75.26
2022-08-12T11:56:11.397Z,73.78
2022-08-12T12:03:43.966Z,76.13
2022-08-12T12:07:11.139Z,76.54
2022-08-12T12:10:35.990Z,77.32
2022-08-12T12:14:08.368Z,76.22
2022-08-12T12:17:38.292Z,76.64
2022-08-12T12:21:04.021Z,76.43
2022-08-12T12:24:27.041Z,75.02
2022-08-12T12:28:07.057Z,74.61
2022-08-12T12:32:10.988Z,74.67
2022-08-12T12:36:06.547Z,75.81
2022-08-12T12:38:57.021Z,74.76
2022-08-12T12:42:45.366Z,74.90
2022-08-12T12:46:03.059Z,74.52
2022-08-12T12:49:27.496Z,75.86
2022-08-12T12:52:53.035Z,76.89
2022-08-12T12:56:20.043Z,76.45
2022-08-12T13:00:17.047Z,76.31
2022-08-12T13:03:49.331Z,75.75
2022-08-12T13:07:14.059Z,75.26
2022-08-12T13:10:37.334Z,74.73
2022-08-12T13:14:28.816Z,74.07
2022-08-12T13:18:03.273Z,74.56
2022-08-12T13:21:33.208Z,74.31
2022-08-12T13:25:09.143Z,75.42
2022-08-12T13:28:33.634Z,75.99
2022-08-12T13:32:18.851Z,77.16
2022-08-12T13:36:05.740Z,77.50
2022-08-12T13:39:18.134Z,77.10
2022-08-12T13:42:42.266Z,77.49
2022-08-12T13:46:09.087Z,77.31
2022-08-12T13:49:53.733Z,77.37
2022-08-12T13:53:24.173Z,77.86
2022-08-12T13:56:51.418Z,78.39
2022-08-12T14:00:18.098Z,78.90
2022-08-12T14:03:50.100Z,79.60
2022-08-12T14:07:16.085Z,81.37
2022-08-12T14:10:51.038Z,81.27
2022-08-12T14:14:14.111Z,81.46
2022-08-12T14:17:39.075Z,81.46
2022-08-12T14:21:10.092Z,81.79
2022-08-12T14:24:45.084Z,82.18
2022-08-12T14:28:08.129Z,81.84
2022-08-12T14:31:31.947Z,82.10
2022-08-12T14:34:52.096Z,82.29
2022-08-12T14:38:15.072Z,82.40
2022-08-12T14:41:48.304Z,82.64
2022-08-12T14:45:15.079Z,82.74
2022-08-12T14:48:38.096Z,83.30
2022-08-12T14:53:13.467Z,83.85
2022-08-12T14:59:58.376Z,84.63
2022-08-12T15:03:25.120Z,85.14
2022-08-12T15:07:10.108Z,84.38
2022-08-12T15:10:57.128Z,85.43
2022-08-12T15:14:21.210Z,85.46
2022-08-12T15:17:45.102Z,85.39
2022-08-12T15:21:11.574Z,85.88
2022-08-12T15:24:35.103Z,87.04
2022-08-12T15:28:04.631Z,85.92
2022-08-12T15:32:00.968Z,86.27
2022-08-12T15:35:20.185Z,86.25
2022-08-12T15:38:43.082Z,86.38
2022-08-12T15:42:07.169Z,85.85
2022-08-12T15:45:24.125Z,86.63
2022-08-12T15:48:51.105Z,86.59
2022-08-12T15:52:26.175Z,86.44
2022-08-12T15:55:46.223Z,86.47
2022-08-12T15:59:11.122Z,86.84
2022-08-12T16:02:38.126Z,87.95
2022-08-12T16:06:12.714Z,88.62
2022-08-12T16:09:45.400Z,88.27
2022-08-12T16:13:32.459Z,87.38
2022-08-12T16:16:59.143Z,86.94
2022-08-12T16:20:33.715Z,87.17
2022-08-12T16:23:58.207Z,87.92
2022-08-12T16:27:22.167Z,86.96
2022-08-12T16:30:49.984Z,88.08
2022-08-12T16:34:26.159Z,87.72
2022-08-12T16:38:24.220Z,88.67
2022-08-12T16:41:42.114Z,88.69
2022-08-12T16:45:10.133Z,88.97
2022-08-12T16:48:37.114Z,89.92
2022-08-12T16:52:01.153Z,90.78
2022-08-12T16:55:24.105Z,89.15
2022-08-12T16:58:48.145Z,88.65
2022-08-12T17:02:13.124Z,87.60
2022-08-12T17:06:02.118Z,88.67
2022-08-12T17:09:27.098Z,89.17
2022-08-12T17:13:10.277Z,88.82
2022-08-12T17:16:35.127Z,87.86
2022-08-12T17:20:34.863Z,88.73
2022-08-12T17:23:53.538Z,88.93
2022-08-12T17:27:18.159Z,89.23
2022-08-12T17:30:43.269Z,89.88
2022-08-12T17:34:17.713Z,89.44
2022-08-12T17:37:36.714Z,88.47
2022-08-12T17:40:55.181Z,88.79
2022-08-12T17:44:19.103Z,89.09
2022-08-12T17:47:44.149Z,88.27
2022-08-12T17:51:10.104Z,88.44
2022-08-12T17:54:39.143Z,88.63
2022-08-12T17:58:05.128Z,89.73
2022-08-12T18:01:28.945Z,89.75
2022-08-12T18:05:09.645Z,89.88
2022-08-12T18:08:37.126Z,89.55
2022-08-12T18:12:24.465Z,89.63
2022-08-12T18:16:05.887Z,89.90
2022-08-12T18:20:03.830Z,88.51
2022-08-12T18:23:14.151Z,88.82
2022-08-12T18:26:38.169Z,88.91
2022-08-12T18:30:04.691Z,89.16
2022-08-12T18:33:32.155Z,90.03
2022-08-12T18:37:11.748Z,89.22
2022-08-12T18:41:21.161Z,90.00
2022-08-12T18:44:47.168Z,90.30
2022-08-12T18:48:13.160Z,89.87
2022-08-12T18:51:48.905Z,88.92
2022-08-12T18:55:14.253Z,87.20
2022-08-12T18:58:41.156Z,87.66
2022-08-12T19:02:24.288Z,88.27
2022-08-12T19:05:54.121Z,89.10
2022-08-12T19:09:23.185Z,89.39
2022-08-12T19:13:24.032Z,89.85
2022-08-12T19:16:52.200Z,88.97
2022-08-12T19:20:17.181Z,88.66
2022-08-12T19:23:44.194Z,89.20
2022-08-12T19:27:08.477Z,89.13
2022-08-12T19:31:03.152Z,89.71
2022-08-12T19:35:07.019Z,89.40
2022-08-12T19:38:12.146Z,88.99
2022-08-12T19:42:01.397Z,88.24
2022-08-12T19:45:42.039Z,88.73
2022-08-12T19:49:07.205Z,84.44
2022-08-12T19:52:33.207Z,79.21
2022-08-12T19:55:56.162Z,83.42
2022-08-12T19:59:43.444Z,85.58
2022-08-12T20:03:38.665Z,85.81
2022-08-12T20:07:04.140Z,85.79
2022-08-12T20:10:35.271Z,85.39
2022-08-12T20:14:03.138Z,84.36
2022-08-12T20:17:36.210Z,83.02
2022-08-12T20:21:01.141Z,82.42
2022-08-12T20:24:34.182Z,81.82
2022-08-12T20:28:03.631Z,79.17
2022-08-12T20:31:31.560Z,69.90
2022-08-12T20:34:57.168Z,65.48
2022-08-12T20:38:27.267Z,67.98
2022-08-12T20:41:52.179Z,69.44
2022-08-12T20:45:16.209Z,73.21
2022-08-12T20:48:43.188Z,75.00
2022-08-12T20:52:08.213Z,74.93
2022-08-12T20:55:43.126Z,75.28
2022-08-12T20:59:09.194Z,75.40
2022-08-12T21:02:36.239Z,74.44
2022-08-12T21:06:18.204Z,74.72
2022-08-12T21:09:55.176Z,74.96
2022-08-12T21:13:21.194Z,73.73
2022-08-12T21:16:44.184Z,72.51
2022-08-12T21:20:22.420Z,72.20
2022-08-12T21:23:47.172Z,73.64
2022-08-12T21:27:12.229Z,72.05
2022-08-12T21:30:42.173Z,71.50
2022-08-12T21:34:29.362Z,72.41
2022-08-12T21:37:56.163Z,69.31
2022-08-12T21:41:20.228Z,67.74
2022-08-12T21:45:46.020Z,66.13
2022-08-12T21:48:33.234Z,63.86
2022-08-12T21:51:58.203Z,63.23
2022-08-12T21:55:24.189Z,63.77
2022-08-12T21:58:52.221Z,62.03
2022-08-12T22:02:36.236Z,60.79
2022-08-12T22:06:20.289Z,62.83
2022-08-12T22:09:57.257Z,62.05
2022-08-12T22:14:04.261Z,63.26
2022-08-12T22:17:07.185Z,63.60
2022-08-12T22:20:37.228Z,64.02
2022-08-12T22:24:05.450Z,63.84
2022-08-12T22:27:32.160Z,62.96
2022-08-12T22:31:15.451Z,61.54
2022-08-12T22:34:39.232Z,61.41
2022-08-12T22:38:03.134Z,59.68
2022-08-12T22:41:47.208Z,60.83
2022-08-12T22:45:56.174Z,57.57
2022-08-12T22:49:22.282Z,55.21
2022-08-12T22:52:50.184Z,54.39
2022-08-12T22:56:17.180Z,54.06
2022-08-12T22:59:55.453Z,52.67
2022-08-12T23:03:49.192Z,54.45
2022-08-12T23:07:09.198Z,53.46
2022-08-12T23:10:36.172Z,54.16
2022-08-12T23:14:03.493Z,51.57
2022-08-12T23:17:40.001Z,49.93
2022-08-12T23:21:05.180Z,51.12
2022-08-12T23:24:38.377Z,48.69
2022-08-12T23:28:29.220Z,49.79
2022-08-12T23:32:02.656Z,48.33
2022-08-12T23:35:45.498Z,48.09
2022-08-12T23:40:14.084Z,46.60
2022-08-12T23:42:56.197Z,47.33
2022-08-12T23:46:21.239Z,46.98
2022-08-12T23:49:57.296Z,47.84
2022-08-12T23:53:25.262Z,46.33
2022-08-12T23:56:57.243Z,46.50
